Terminal Aerodrome Forecast
Issued by NWS

Home | Current Version | Previous Version | Text Only | Print | Product List | Glossary Off
Versions: 1 2 3 4 5 6 7 8 9 10 11 12 13 14

000
FTUS43 KMPX 161700 CCA
TAFRWF
TAF COR
KRWF 161745Z 1618/1718 23011KT P6SM SKC
     FM170000 20006KT P6SM SKC
     FM171200 24002KT P6SM SCT150=

USA.gov is the U.S. government's official web portal to all federal, state and local government web resources and services.